Time;durP1;ratioP1;P1;durP2;ratioP2;P2;SDS_P1;SDS_P2;PMS_P1;PMS_P2;Temp;Humidity;BMP_temperature;BMP_pressure;BME280_temperature;BME280_humidity;BME280_pressure;Samples;Min_cycle;Max_cycle;Signal;HPM_P1;HPM_P2
2021/03/18 00:02:04;;;;;;;10.67;5.70;;;-0.10;98.70;;;;;;4974832;28;20447;-55
2021/03/18 00:04:29;;;;;;;7.77;5.30;;;-0.10;98.80;;;;;;4981486;28;20919;-56
2021/03/18 00:06:55;;;;;;;9.43;5.97;;;-0.10;98.90;;;;;;4979243;28;20509;-56
2021/03/18 00:09:21;;;;;;;7.83;5.30;;;-0.10;98.80;;;;;;4961827;28;20222;-56
2021/03/18 00:11:49;;;;;;;9.20;6.10;;;-0.10;99.00;;;;;;4973902;28;20688;-57
2021/03/18 00:14:19;;;;;;;8.27;6.00;;;-0.10;99.20;;;;;;4966373;28;20222;-56
2021/03/18 00:16:45;;;;;;;9.60;6.23;;;-0.10;99.40;;;;;;4969962;28;20442;-56
2021/03/18 00:19:11;;;;;;;5.93;4.63;;;-0.10;99.10;;;;;;4965925;28;20800;-57
2021/03/18 00:21:37;;;;;;;6.40;4.60;;;-0.10;99.20;;;;;;4958817;28;21807;-58
2021/03/18 00:24:03;;;;;;;8.50;4.60;;;-0.10;99.10;;;;;;4936294;28;20617;-58
2021/03/18 00:26:31;;;;;;;9.47;5.00;;;-0.10;98.90;;;;;;4939960;28;20454;-57
2021/03/18 00:29:00;;;;;;;7.97;5.40;;;-0.10;98.80;;;;;;4959000;28;20458;-57
2021/03/18 00:31:29;;;;;;;8.10;4.70;;;-0.10;98.80;;;;;;4957726;28;20852;-57
2021/03/18 00:33:55;;;;;;;12.23;5.40;;;-0.10;98.50;;;;;;4956951;28;21050;-56
2021/03/18 00:36:23;;;;;;;7.20;4.83;;;-0.20;98.80;;;;;;4958223;28;20482;-56
2021/03/18 00:38:49;;;;;;;6.70;4.97;;;-0.10;98.90;;;;;;4941904;28;20469;-54
2021/03/18 00:41:15;;;;;;;7.23;4.77;;;-0.20;98.80;;;;;;4958917;28;20924;-57
2021/03/18 00:43:42;;;;;;;7.77;4.80;;;-0.10;98.90;;;;;;4955974;28;20441;-57
2021/03/18 00:46:08;;;;;;;13.43;5.20;;;-0.10;99.00;;;;;;4958991;28;20440;-56
2021/03/18 00:48:35;;;;;;;8.60;5.57;;;-0.10;99.40;;;;;;4948297;28;20457;-56
2021/03/18 00:51:19;;;;;;;7.17;4.67;;;-0.10;99.20;;;;;;4960651;28;20918;-58
2021/03/18 00:53:48;;;;;;;8.67;5.60;;;-0.10;98.90;;;;;;4960530;28;20439;-59
2021/03/18 00:56:16;;;;;;;6.50;4.60;;;-0.10;98.80;;;;;;4962764;28;20419;-56
2021/03/18 00:58:43;;;;;;;7.60;6.20;;;-0.10;98.60;;;;;;4961197;28;20484;-58
2021/03/18 01:01:10;;;;;;;6.10;5.20;;;-0.10;99.10;;;;;;4961383;28;20481;-56
2021/03/18 01:03:40;;;;;;;9.47;5.40;;;-0.10;98.90;;;;;;4961322;28;20493;-57
2021/03/18 01:06:09;;;;;;;6.70;4.83;;;-0.10;99.10;;;;;;4962426;28;20438;-56
2021/03/18 01:08:35;;;;;;;7.80;5.10;;;-0.10;99.10;;;;;;4944708;28;20462;-56
2021/03/18 01:11:03;;;;;;;7.27;5.73;;;-0.10;99.10;;;;;;4964381;28;20541;-57
2021/03/18 01:13:30;;;;;;;8.13;5.43;;;-0.10;98.90;;;;;;4964047;28;20445;-57
2021/03/18 01:16:04;;;;;;;7.33;5.30;;;-0.10;98.70;;;;;;4970334;28;20463;-57
2021/03/18 01:18:39;;;;;;;8.83;6.43;;;-0.10;98.80;;;;;;4970085;28;20438;-56
2021/03/18 01:21:07;;;;;;;6.50;4.50;;;-0.20;98.80;;;;;;4962633;28;20830;-58
2021/03/18 01:23:32;;;;;;;8.83;5.43;;;-0.20;98.80;;;;;;4971421;28;20821;-55
2021/03/18 01:25:58;;;;;;;12.67;5.87;;;-0.30;98.90;;;;;;4968525;28;20439;-57
2021/03/18 01:28:24;;;;;;;12.17;5.97;;;-0.30;99.20;;;;;;4975173;28;20211;-57
2021/03/18 01:30:52;;;;;;;7.50;5.23;;;-0.30;99.20;;;;;;4971014;28;20290;-55
2021/03/18 01:33:18;;;;;;;7.53;4.70;;;-0.30;99.10;;;;;;4972225;28;21062;-58
2021/03/18 01:35:44;;;;;;;6.90;4.50;;;-0.40;98.90;;;;;;4972348;28;20461;-57
2021/03/18 01:38:10;;;;;;;5.60;4.50;;;-0.40;99.00;;;;;;4969904;28;20487;-57
2021/03/18 01:40:36;;;;;;;13.40;5.03;;;-0.40;99.00;;;;;;4970556;28;20257;-57
2021/03/18 01:43:01;;;;;;;6.77;4.40;;;-0.40;99.20;;;;;;4949990;28;20201;-56
2021/03/18 01:45:27;;;;;;;8.73;5.10;;;-0.50;99.30;;;;;;4975206;28;20485;-55
2021/03/18 01:47:56;;;;;;;9.33;4.70;;;-0.50;99.50;;;;;;4973136;28;20631;-56
2021/03/18 01:50:25;;;;;;;9.23;5.30;;;-0.50;99.80;;;;;;4960666;28;20931;-56
2021/03/18 01:52:51;;;;;;;8.70;5.63;;;-0.50;99.80;;;;;;4977615;28;20470;-56
2021/03/18 01:55:45;;;;;;;7.53;5.40;;;-0.50;99.90;;;;;;4952655;28;20446;-57
2021/03/18 01:58:11;;;;;;;8.10;5.00;;;-0.50;99.90;;;;;;4967464;28;20186;-56
2021/03/18 02:00:40;;;;;;;10.33;5.70;;;-0.50;99.80;;;;;;4958836;28;20461;-57
2021/03/18 02:03:06;;;;;;;10.73;5.77;;;-0.60;99.80;;;;;;4984175;28;20443;-56
2021/03/18 02:05:32;;;;;;;11.23;5.57;;;-0.60;99.80;;;;;;4954475;28;20485;-56
2021/03/18 02:07:59;;;;;;;8.17;5.47;;;-0.60;99.90;;;;;;4965738;28;20267;-54
2021/03/18 02:10:28;;;;;;;8.23;5.70;;;-0.60;99.90;;;;;;4971429;28;20434;-57
2021/03/18 02:12:53;;;;;;;8.67;5.40;;;-0.60;99.90;;;;;;4973716;28;20586;-55
2021/03/18 02:15:22;;;;;;;7.30;5.40;;;-0.60;99.90;;;;;;4950598;28;20910;-57
2021/03/18 02:18:29;;;;;;;6.23;4.80;;;-0.60;99.90;;;;;;4970198;28;20197;-55
2021/03/18 02:21:32;;;;;;;9.50;4.67;;;-0.60;99.90;;;;;;4971438;28;20823;-55
2021/03/18 02:24:35;;;;;;;9.60;4.30;;;-0.60;99.90;;;;;;4968995;28;20485;-58
2021/03/18 02:27:19;;;;;;;11.50;4.70;;;-0.60;99.90;;;;;;4958855;28;21050;-58
2021/03/18 02:30:16;;;;;;;6.43;4.80;;;-0.50;99.90;;;;;;4959889;28;20472;-57
2021/03/18 02:33:13;;;;;;;11.17;4.90;;;-0.50;99.90;;;;;;4962666;28;20529;-58
2021/03/18 02:36:05;;;;;;;8.00;5.10;;;-0.50;99.90;;;;;;4960739;28;20476;-57
2021/03/18 02:38:32;;;;;;;10.60;6.10;;;-0.40;99.90;;;;;;4959921;28;20459;-58
2021/03/18 02:41:09;;;;;;;10.17;5.97;;;-0.40;99.90;;;;;;4960433;28;21261;-57
2021/03/18 02:44:16;;;;;;;8.53;5.70;;;-0.40;99.90;;;;;;4960174;28;21018;-54
2021/03/18 02:46:42;;;;;;;15.27;6.10;;;-0.30;99.90;;;;;;4949682;28;20458;-55
2021/03/18 02:49:10;;;;;;;10.17;6.10;;;-0.40;99.90;;;;;;4955282;28;20491;-57
2021/03/18 02:51:39;;;;;;;9.53;6.30;;;-0.40;99.90;;;;;;4952423;28;20461;-55
2021/03/18 02:54:08;;;;;;;10.73;6.20;;;-0.30;99.90;;;;;;4962988;28;20968;-55
2021/03/18 02:56:43;;;;;;;7.63;5.60;;;-0.30;99.90;;;;;;4957896;28;20454;-57
2021/03/18 02:59:13;;;;;;;12.43;6.33;;;-0.30;99.90;;;;;;4954412;28;20452;-60
2021/03/18 03:01:42;;;;;;;10.50;6.13;;;-0.30;99.90;;;;;;4956421;28;20450;-58
2021/03/18 03:04:09;;;;;;;12.53;6.40;;;-0.30;99.90;;;;;;4960505;28;20439;-57
2021/03/18 03:06:36;;;;;;;9.30;6.43;;;-0.30;99.90;;;;;;4959149;28;20577;-58
2021/03/18 03:09:05;;;;;;;10.63;6.00;;;-0.20;99.90;;;;;;4957200;28;20477;-58
2021/03/18 03:11:32;;;;;;;10.50;6.50;;;-0.20;99.90;;;;;;4967894;28;20476;-58
2021/03/18 03:14:00;;;;;;;8.80;5.90;;;-0.20;99.90;;;;;;4968311;28;20815;-57
2021/03/18 03:16:27;;;;;;;9.13;6.30;;;-0.20;99.90;;;;;;4962392;28;20435;-58
2021/03/18 03:18:53;;;;;;;7.70;5.30;;;-0.10;99.90;;;;;;4959881;28;20562;-59
2021/03/18 03:21:21;;;;;;;14.73;6.10;;;-0.10;99.90;;;;;;4961336;28;20469;-58
2021/03/18 03:23:47;;;;;;;10.60;6.43;;;-0.10;99.90;;;;;;4958872;28;20437;-58
2021/03/18 03:26:17;;;;;;;10.80;6.57;;;-0.10;99.90;;;;;;4958340;28;20485;-57
2021/03/18 03:28:45;;;;;;;13.93;8.10;;;-0.10;99.90;;;;;;4936525;28;20489;-57
2021/03/18 03:31:10;;;;;;;10.40;6.77;;;-0.10;99.90;;;;;;4961783;28;20451;-58
2021/03/18 03:33:38;;;;;;;10.00;5.30;;;-0.10;99.90;;;;;;4944553;28;20471;-58
2021/03/18 03:36:05;;;;;;;8.07;6.00;;;-0.10;99.90;;;;;;4968200;28;20183;-57
2021/03/18 03:38:31;;;;;;;10.63;6.03;;;-0.10;99.90;;;;;;4969738;28;20530;-58
2021/03/18 03:40:57;;;;;;;12.37;6.80;;;-0.10;99.90;;;;;;4970201;28;22664;-57
2021/03/18 03:43:23;;;;;;;9.57;5.93;;;-0.10;99.90;;;;;;4972204;28;20493;-57
2021/03/18 03:45:50;;;;;;;10.23;7.07;;;-0.10;99.90;;;;;;4967485;28;20198;-56
2021/03/18 03:48:16;;;;;;;13.13;7.23;;;0.00;99.90;;;;;;4957673;28;20711;-55
2021/03/18 03:50:42;;;;;;;11.07;7.20;;;0.00;99.90;;;;;;4961409;28;20734;-57
2021/03/18 03:53:24;;;;;;;11.77;6.77;;;0.00;99.90;;;;;;4963726;28;20219;-54
2021/03/18 03:55:49;;;;;;;10.37;6.50;;;0.00;99.90;;;;;;4960975;28;20446;-56
2021/03/18 03:58:34;;;;;;;12.57;7.67;;;0.00;99.90;;;;;;4960772;28;21316;-56
2021/03/18 04:01:03;;;;;;;11.40;7.83;;;0.00;99.90;;;;;;4953574;28;20219;-55
2021/03/18 04:03:31;;;;;;;14.10;7.30;;;0.00;99.90;;;;;;4959198;28;20500;-55
2021/03/18 04:05:58;;;;;;;13.07;6.07;;;0.00;99.90;;;;;;4957953;28;20466;-55
2021/03/18 04:08:26;;;;;;;9.20;6.17;;;0.00;99.90;;;;;;4959368;28;20570;-56
2021/03/18 04:10:54;;;;;;;9.73;6.20;;;0.00;99.90;;;;;;4961547;28;20950;-56
2021/03/18 04:13:20;;;;;;;11.83;5.80;;;0.00;99.90;;;;;;4943759;28;20948;-56
2021/03/18 04:15:48;;;;;;;11.47;6.70;;;0.00;99.90;;;;;;4957875;28;20528;-56
2021/03/18 04:18:16;;;;;;;13.67;6.83;;;0.00;99.90;;;;;;4962568;28;20898;-55
2021/03/18 04:20:44;;;;;;;11.67;6.70;;;0.00;99.90;;;;;;4957954;28;20477;-56
2021/03/18 04:23:11;;;;;;;11.20;6.73;;;0.00;99.90;;;;;;4961500;28;20496;-56
2021/03/18 04:25:39;;;;;;;10.83;6.20;;;0.00;99.90;;;;;;4946940;28;20450;-54
2021/03/18 04:28:09;;;;;;;15.30;7.83;;;0.00;99.90;;;;;;4949335;28;21010;-53
2021/03/18 04:30:37;;;;;;;12.93;6.73;;;-0.10;99.90;;;;;;4964940;28;20908;-56
2021/03/18 04:33:04;;;;;;;10.37;7.03;;;-0.10;99.90;;;;;;4964943;28;20493;-57
2021/03/18 04:35:31;;;;;;;12.47;7.00;;;-0.10;99.90;;;;;;4964836;28;20434;-57
2021/03/18 04:38:00;;;;;;;7.90;5.50;;;-0.10;99.90;;;;;;4966019;28;20432;-56
2021/03/18 04:40:26;;;;;;;13.90;7.10;;;-0.20;99.90;;;;;;4963350;28;20482;-55
2021/03/18 04:42:53;;;;;;;14.87;6.57;;;-0.10;99.90;;;;;;4975165;23;21201;-61
2021/03/18 04:45:20;;;;;;;13.33;7.03;;;-0.20;99.90;;;;;;4988019;28;20191;-61
2021/03/18 04:47:48;;;;;;;12.00;6.50;;;-0.20;99.90;;;;;;5004574;28;20529;-60
2021/03/18 04:50:19;;;;;;;10.43;6.67;;;-0.20;99.90;;;;;;5006592;28;20523;-60
2021/03/18 04:52:45;;;;;;;12.43;6.93;;;-0.30;99.90;;;;;;4975136;28;20460;-59
2021/03/18 04:55:12;;;;;;;9.07;6.20;;;-0.30;99.90;;;;;;4984343;28;20442;-60
2021/03/18 04:57:44;;;;;;;16.10;7.70;;;-0.30;99.90;;;;;;4987499;28;20430;-58
2021/03/18 05:00:11;;;;;;;13.27;7.33;;;-0.30;99.90;;;;;;4964954;28;20438;-59
2021/03/18 05:02:40;;;;;;;10.93;6.80;;;-0.30;99.90;;;;;;4987831;28;20488;-60
2021/03/18 05:05:09;;;;;;;9.30;6.87;;;-0.30;99.90;;;;;;4987926;28;20940;-60
2021/03/18 05:07:36;;;;;;;11.27;7.40;;;-0.20;99.90;;;;;;4986736;28;20446;-60
2021/03/18 05:10:03;;;;;;;17.93;9.63;;;-0.30;99.90;;;;;;4981392;28;20469;-61
2021/03/18 05:12:29;;;;;;;16.20;8.30;;;-0.20;99.90;;;;;;4979096;28;20839;-60
2021/03/18 05:14:56;;;;;;;15.73;8.00;;;-0.20;99.90;;;;;;4990739;28;20571;-60
2021/03/18 05:17:21;;;;;;;12.73;6.57;;;-0.20;99.90;;;;;;4990528;28;20929;-60
2021/03/18 05:19:47;;;;;;;20.03;9.87;;;-0.20;99.90;;;;;;4989337;28;20195;-60
2021/03/18 05:22:13;;;;;;;23.67;9.43;;;-0.20;99.90;;;;;;4988988;28;20233;-62
2021/03/18 05:24:42;;;;;;;15.57;7.50;;;-0.20;99.90;;;;;;4990085;28;20557;-60
2021/03/18 05:27:07;;;;;;;14.27;8.13;;;-0.20;99.90;;;;;;4992701;28;20232;-61
2021/03/18 05:29:33;;;;;;;12.50;7.90;;;-0.10;99.90;;;;;;4977199;28;20473;-59
2021/03/18 05:31:59;;;;;;;17.50;9.13;;;-0.10;99.90;;;;;;4989703;28;20702;-60
2021/03/18 05:34:25;;;;;;;18.77;8.80;;;-0.10;99.90;;;;;;4987994;28;20674;-61
2021/03/18 05:36:51;;;;;;;13.70;8.20;;;-0.10;99.90;;;;;;4990703;28;20532;-61
2021/03/18 05:39:17;;;;;;;17.63;8.77;;;-0.10;99.90;;;;;;4991748;28;20563;-62
2021/03/18 05:41:45;;;;;;;10.73;7.37;;;-0.10;99.90;;;;;;4988589;28;20534;-61
2021/03/18 05:44:11;;;;;;;14.33;7.13;;;-0.10;99.90;;;;;;4993091;28;20449;-59
2021/03/18 05:46:39;;;;;;;13.83;8.13;;;-0.10;99.90;;;;;;4989441;28;20493;-60
2021/03/18 05:49:05;;;;;;;13.83;7.10;;;-0.10;99.90;;;;;;4991026;28;20457;-62
2021/03/18 05:51:33;;;;;;;14.90;7.97;;;-0.10;99.90;;;;;;4985958;28;20477;-61
2021/03/18 05:54:01;;;;;;;12.53;7.83;;;-0.20;99.90;;;;;;4990455;28;20663;-62
2021/03/18 05:56:27;;;;;;;12.27;6.80;;;-0.10;99.90;;;;;;4978005;28;20444;-60
2021/03/18 05:58:53;;;;;;;10.57;7.17;;;-0.10;99.90;;;;;;4980686;28;20444;-57
2021/03/18 06:01:19;;;;;;;12.43;8.07;;;-0.20;99.90;;;;;;4980743;28;20461;-61
2021/03/18 06:03:46;;;;;;;12.03;7.40;;;-0.20;99.90;;;;;;4986810;28;20436;-59
2021/03/18 06:06:13;;;;;;;18.83;7.40;;;-0.10;99.90;;;;;;4987788;28;20266;-61
2021/03/18 06:08:39;;;;;;;21.47;9.30;;;-0.10;99.90;;;;;;4987617;28;20462;-61
2021/03/18 06:11:07;;;;;;;14.83;8.50;;;-0.10;99.90;;;;;;4986328;28;20501;-60
2021/03/18 06:13:34;;;;;;;14.87;7.23;;;0.00;99.90;;;;;;4987723;28;20420;-61
2021/03/18 06:16:01;;;;;;;11.83;6.57;;;0.00;99.90;;;;;;4984973;28;20432;-61
2021/03/18 06:18:27;;;;;;;15.27;7.90;;;0.10;99.90;;;;;;4983912;28;20452;-62
2021/03/18 06:20:54;;;;;;;13.70;7.93;;;0.10;99.90;;;;;;4985223;28;20429;-61
2021/03/18 06:23:21;;;;;;;16.67;9.10;;;0.10;99.90;;;;;;4984510;28;20434;-61
2021/03/18 06:25:48;;;;;;;17.43;9.50;;;0.10;99.90;;;;;;4981639;28;20428;-61
2021/03/18 06:28:22;;;;;;;13.43;7.60;;;0.10;99.90;;;;;;4983068;28;20994;-63
2021/03/18 06:31:06;;;;;;;12.60;7.67;;;0.20;99.90;;;;;;4975870;28;23018;-60
2021/03/18 06:33:51;;;;;;;12.27;7.70;;;0.10;99.90;;;;;;4977600;28;21447;-60
2021/03/18 06:36:21;;;;;;;12.93;7.63;;;0.20;99.90;;;;;;4984306;28;23633;-61
2021/03/18 06:39:10;;;;;;;14.90;8.07;;;0.10;99.90;;;;;;4987487;28;21036;-61
2021/03/18 06:41:39;;;;;;;14.43;8.60;;;0.20;99.90;;;;;;4981137;28;20559;-60
2021/03/18 06:44:18;;;;;;;19.23;9.90;;;0.20;99.90;;;;;;4989309;28;20981;-60
2021/03/18 06:46:44;;;;;;;14.73;9.00;;;0.20;99.90;;;;;;4981126;28;20484;-61
2021/03/18 06:49:12;;;;;;;18.20;9.53;;;0.20;99.90;;;;;;4984038;28;20835;-61
2021/03/18 06:51:39;;;;;;;14.87;8.60;;;0.30;99.90;;;;;;4989677;28;20521;-61
2021/03/18 06:54:18;;;;;;;14.70;8.27;;;0.30;99.90;;;;;;4991445;28;20417;-60
2021/03/18 06:56:55;;;;;;;20.80;8.50;;;0.30;99.90;;;;;;4985950;28;20441;-60
2021/03/18 06:59:50;;;;;;;14.93;8.63;;;0.30;99.90;;;;;;4963841;28;20458;-60
2021/03/18 07:02:19;;;;;;;12.50;7.53;;;0.40;99.90;;;;;;4968039;28;20560;-60
2021/03/18 07:04:50;;;;;;;14.63;7.80;;;0.40;99.90;;;;;;4988031;28;20441;-61
2021/03/18 07:07:17;;;;;;;17.93;8.23;;;0.40;99.90;;;;;;4991134;28;20925;-60
2021/03/18 07:09:45;;;;;;;16.43;8.23;;;0.50;99.90;;;;;;4988918;28;20446;-60
2021/03/18 07:12:16;;;;;;;12.23;7.33;;;0.50;99.90;;;;;;4988522;28;20530;-60
2021/03/18 07:14:43;;;;;;;13.17;7.50;;;0.60;99.90;;;;;;4967563;28;20446;-60
2021/03/18 07:17:17;;;;;;;11.63;7.63;;;0.70;99.90;;;;;;4985313;28;20449;-61
2021/03/18 07:19:42;;;;;;;12.17;7.50;;;0.70;99.90;;;;;;4987826;28;20437;-60
2021/03/18 07:22:19;;;;;;;11.53;7.93;;;0.70;99.90;;;;;;4985022;28;20457;-61
2021/03/18 07:24:52;;;;;;;12.77;8.00;;;0.80;99.90;;;;;;4988654;28;20201;-60
2021/03/18 07:27:18;;;;;;;17.87;8.10;;;0.80;99.70;;;;;;4984132;28;20907;-60
2021/03/18 07:29:47;;;;;;;14.70;8.40;;;0.90;99.50;;;;;;4986823;28;20996;-60
2021/03/18 07:32:14;;;;;;;16.33;8.43;;;1.00;99.30;;;;;;4970677;28;20206;-60
2021/03/18 07:34:41;;;;;;;16.70;8.57;;;1.10;99.10;;;;;;4967621;28;20434;-62
2021/03/18 07:37:08;;;;;;;18.37;8.97;;;1.10;98.80;;;;;;4984720;28;20442;-59
2021/03/18 07:39:39;;;;;;;15.33;7.17;;;1.10;98.90;;;;;;4984542;28;20551;-61
2021/03/18 07:42:06;;;;;;;11.90;7.27;;;1.20;98.80;;;;;;4984997;28;20465;-60
2021/03/18 07:44:35;;;;;;;15.30;8.20;;;1.20;98.30;;;;;;4980354;28;20435;-60
2021/03/18 07:47:02;;;;;;;16.23;9.10;;;1.20;98.10;;;;;;4977576;28;20929;-60
2021/03/18 07:49:41;;;;;;;17.73;8.10;;;1.30;98.10;;;;;;4981601;28;20468;-61
2021/03/18 07:52:11;;;;;;;14.67;7.60;;;1.30;97.60;;;;;;4979719;28;20671;-61
2021/03/18 07:54:37;;;;;;;15.87;7.80;;;1.40;97.50;;;;;;4983148;28;20946;-60
2021/03/18 07:57:14;;;;;;;12.27;7.63;;;1.50;97.40;;;;;;4966124;28;20430;-59
2021/03/18 07:59:39;;;;;;;12.33;7.50;;;1.50;96.70;;;;;;4964912;28;20814;-61
2021/03/18 08:02:19;;;;;;;17.20;8.70;;;1.50;96.70;;;;;;4983193;28;20468;-59
2021/03/18 08:04:50;;;;;;;13.87;8.53;;;1.50;96.30;;;;;;4986280;28;20434;-60
2021/03/18 08:07:38;;;;;;;16.63;8.73;;;1.50;96.00;;;;;;4977185;28;21004;-62
2021/03/18 08:10:10;;;;;;;18.60;9.40;;;1.60;95.80;;;;;;4982482;28;20479;-60
2021/03/18 08:12:42;;;;;;;16.33;9.40;;;1.70;95.60;;;;;;4958263;28;21313;-60
2021/03/18 08:15:29;;;;;;;19.07;10.07;;;1.70;95.30;;;;;;4962630;28;20438;-61
2021/03/18 08:18:16;;;;;;;17.47;9.70;;;1.80;95.00;;;;;;4974497;28;20481;-60
2021/03/18 08:20:41;;;;;;;17.63;9.80;;;1.90;94.70;;;;;;4978399;28;20480;-60
2021/03/18 08:23:25;;;;;;;19.30;9.67;;;2.10;94.90;;;;;;4977804;28;20476;-60
2021/03/18 08:25:58;;;;;;;17.70;9.07;;;2.20;94.30;;;;;;4977608;28;20185;-60
2021/03/18 08:28:41;;;;;;;19.70;10.47;;;2.40;93.50;;;;;;4979284;28;20464;-61
2021/03/18 08:31:12;;;;;;;17.23;9.17;;;2.50;92.90;;;;;;4976859;28;20509;-61
2021/03/18 08:33:43;;;;;;;14.87;8.20;;;2.60;91.40;;;;;;4980966;28;20431;-60
2021/03/18 08:36:31;;;;;;;19.13;9.40;;;2.70;91.40;;;;;;4963990;28;20438;-62
2021/03/18 08:38:58;;;;;;;19.73;9.17;;;2.80;90.30;;;;;;4978255;28;20516;-60
2021/03/18 08:41:38;;;;;;;21.50;9.17;;;2.80;89.30;;;;;;4969961;28;20487;-63
2021/03/18 08:44:31;;;;;;;20.40;9.17;;;2.90;89.30;;;;;;5004973;28;20433;-61
2021/03/18 08:47:02;;;;;;;15.90;8.47;;;3.00;89.60;;;;;;5008602;28;20427;-62
2021/03/18 08:49:42;;;;;;;16.67;9.00;;;3.20;88.60;;;;;;5002038;28;20456;-61
2021/03/18 08:52:20;;;;;;;13.43;8.27;;;3.30;86.60;;;;;;5003130;28;20470;-62
2021/03/18 08:54:51;;;;;;;16.37;8.80;;;3.40;86.40;;;;;;5000972;28;20458;-61
2021/03/18 08:57:20;;;;;;;15.90;8.33;;;3.50;84.60;;;;;;4987590;28;20459;-62
2021/03/18 08:59:49;;;;;;;15.53;8.20;;;3.70;84.20;;;;;;4970115;28;20959;-60
2021/03/18 09:02:20;;;;;;;14.47;8.60;;;3.80;81.20;;;;;;4965078;28;20509;-61
2021/03/18 09:04:49;;;;;;;14.77;8.40;;;3.90;80.30;;;;;;4981682;28;20811;-61
2021/03/18 09:07:23;;;;;;;13.03;8.20;;;4.00;80.50;;;;;;4979739;28;20432;-62
2021/03/18 09:10:17;;;;;;;16.80;9.10;;;4.10;79.00;;;;;;4979450;28;20824;-59
2021/03/18 09:12:49;;;;;;;12.73;7.10;;;4.20;75.80;;;;;;4983929;28;21026;-60
2021/03/18 09:15:19;;;;;;;12.20;7.03;;;4.30;71.60;;;;;;4993048;28;20438;-62
2021/03/18 09:17:46;;;;;;;13.60;7.33;;;4.40;72.60;;;;;;4968996;28;21131;-60
2021/03/18 09:20:15;;;;;;;8.67;5.57;;;4.50;72.30;;;;;;4982666;28;20501;-57
2021/03/18 09:22:42;;;;;;;12.40;6.73;;;4.60;66.30;;;;;;4979940;28;20484;-57
2021/03/18 09:25:09;;;;;;;17.10;7.53;;;4.70;63.60;;;;;;4987447;28;20531;-57
2021/03/18 09:27:44;;;;;;;10.80;6.17;;;4.90;66.00;;;;;;4986230;28;21097;-59
2021/03/18 09:30:27;;;;;;;11.00;6.23;;;5.10;65.30;;;;;;4979043;28;20459;-62
2021/03/18 09:32:54;;;;;;;13.53;5.90;;;5.20;61.50;;;;;;4981858;28;20455;-63
2021/03/18 09:35:20;;;;;;;16.10;5.40;;;5.20;61.00;;;;;;4985748;28;20582;-57
2021/03/18 09:37:47;;;;;;;8.80;5.70;;;5.30;56.70;;;;;;4981337;28;20472;-59
2021/03/18 09:40:14;;;;;;;11.60;5.43;;;5.40;55.10;;;;;;4980714;28;20991;-60
2021/03/18 09:42:41;;;;;;;10.23;5.97;;;5.40;53.50;;;;;;4982841;28;20479;-61
2021/03/18 09:45:08;;;;;;;7.73;5.03;;;5.40;53.20;;;;;;4983883;28;20439;-61
2021/03/18 09:47:36;;;;;;;6.90;4.60;;;5.50;52.60;;;;;;4960555;28;20448;-61
2021/03/18 09:50:06;;;;;;;6.33;4.07;;;5.50;52.50;;;;;;4978911;28;21041;-61
2021/03/18 09:52:32;;;;;;;8.63;5.70;;;5.60;52.90;;;;;;4980634;28;21095;-61
2021/03/18 09:54:59;;;;;;;9.63;5.60;;;5.80;52.80;;;;;;4958138;28;20439;-62
2021/03/18 09:57:29;;;;;;;9.83;5.60;;;5.90;52.20;;;;;;4984651;28;20729;-62
2021/03/18 09:59:55;;;;;;;10.93;5.90;;;6.00;51.70;;;;;;4986121;28;20436;-61
2021/03/18 10:02:28;;;;;;;8.00;4.93;;;6.10;51.30;;;;;;4983391;28;20886;-62
2021/03/18 10:04:55;;;;;;;7.80;5.23;;;6.30;51.40;;;;;;4979196;28;20432;-62
2021/03/18 10:07:32;;;;;;;8.77;5.70;;;6.50;51.20;;;;;;4957934;28;20441;-63
2021/03/18 10:09:58;;;;;;;14.27;5.50;;;6.60;51.00;;;;;;4984773;28;20961;-62
2021/03/18 10:12:26;;;;;;;10.80;6.03;;;6.70;51.00;;;;;;4986954;28;20460;-61
2021/03/18 10:15:05;;;;;;;12.40;6.30;;;6.90;51.40;;;;;;4992652;28;20445;-62
2021/03/18 10:17:37;;;;;;;10.43;5.30;;;7.00;50.50;;;;;;4985222;28;20444;-62
2021/03/18 10:20:10;;;;;;;11.00;5.93;;;7.20;50.60;;;;;;4983886;28;20432;-63
2021/03/18 10:22:39;;;;;;;11.53;6.77;;;7.30;49.80;;;;;;4983991;28;20459;-62
2021/03/18 10:25:16;;;;;;;12.73;6.43;;;7.30;49.70;;;;;;4986732;28;20459;-64
2021/03/18 10:28:02;;;;;;;11.00;6.13;;;7.40;49.10;;;;;;4985707;28;20449;-62
2021/03/18 10:30:28;;;;;;;9.57;5.97;;;7.40;48.80;;;;;;4985681;28;20451;-62
2021/03/18 10:33:17;;;;;;;11.73;6.43;;;7.10;47.10;;;;;;4981305;28;20482;-61
2021/03/18 10:35:44;;;;;;;12.27;6.40;;;6.70;47.00;;;;;;4981495;28;20468;-61
2021/03/18 10:38:12;;;;;;;11.20;6.13;;;6.30;47.80;;;;;;4976143;28;20908;-62
2021/03/18 10:40:47;;;;;;;13.77;6.20;;;5.90;49.20;;;;;;4985220;28;20936;-62
2021/03/18 10:43:22;;;;;;;7.83;5.63;;;5.60;49.70;;;;;;4985287;28;20894;-62
2021/03/18 10:45:48;;;;;;;9.23;5.57;;;5.40;50.40;;;;;;4986281;28;20523;-64
2021/03/18 10:48:28;;;;;;;8.47;5.00;;;5.20;50.20;;;;;;4965588;28;20484;-61
2021/03/18 10:51:00;;;;;;;8.13;5.00;;;5.20;50.60;;;;;;4981338;28;20450;-61
2021/03/18 10:53:25;;;;;;;9.00;5.13;;;5.20;51.60;;;;;;4971890;28;20443;-61
2021/03/18 10:55:54;;;;;;;7.40;5.30;;;5.10;51.70;;;;;;4983624;28;20909;-61
2021/03/18 10:58:25;;;;;;;9.00;5.20;;;5.10;50.70;;;;;;4964873;28;20197;-61
2021/03/18 11:01:08;;;;;;;7.57;5.43;;;5.20;51.00;;;;;;4981583;28;20514;-62
2021/03/18 11:03:40;;;;;;;9.20;6.37;;;5.20;51.70;;;;;;4981611;28;20503;-61
2021/03/18 11:06:14;;;;;;;11.40;5.80;;;5.20;53.20;;;;;;4975786;28;20878;-63
2021/03/18 11:08:55;;;;;;;10.20;6.10;;;5.30;54.10;;;;;;4989614;28;21007;-61
2021/03/18 11:11:23;;;;;;;9.30;5.60;;;5.30;54.20;;;;;;4985096;28;20458;-62
2021/03/18 11:13:50;;;;;;;8.40;5.73;;;5.40;53.40;;;;;;4964625;28;20467;-63
2021/03/18 11:16:23;;;;;;;8.60;5.13;;;5.50;53.10;;;;;;4985678;28;20523;-62
2021/03/18 11:18:57;;;;;;;7.67;5.50;;;5.60;52.20;;;;;;4966023;28;20437;-62
2021/03/18 11:21:26;;;;;;;8.33;5.40;;;5.60;52.10;;;;;;4981564;28;20575;-63
2021/03/18 11:24:26;;;;;;;8.70;4.80;;;5.50;50.70;;;;;;4978535;28;20451;-63
2021/03/18 11:26:57;;;;;;;6.97;4.67;;;5.40;51.00;;;;;;4952748;28;21193;-62
2021/03/18 11:29:31;;;;;;;9.70;5.00;;;5.20;50.80;;;;;;4973241;28;20475;-62
2021/03/18 11:31:59;;;;;;;6.43;4.73;;;5.20;51.70;;;;;;4987991;28;20491;-63
2021/03/18 11:34:33;;;;;;;10.97;5.27;;;5.10;51.50;;;;;;4976684;28;20436;-62
2021/03/18 11:37:12;;;;;;;7.13;4.53;;;5.20;51.50;;;;;;4977402;28;20427;-63
2021/03/18 11:39:39;;;;;;;8.10;5.20;;;5.20;50.80;;;;;;4979263;28;21162;-61
2021/03/18 11:42:05;;;;;;;12.60;5.13;;;5.20;51.30;;;;;;4967646;28;20518;-63
2021/03/18 11:44:32;;;;;;;8.33;5.10;;;5.20;51.90;;;;;;4969680;28;20536;-62
2021/03/18 11:47:02;;;;;;;6.90;4.47;;;5.30;53.00;;;;;;4964212;28;20506;-61
2021/03/18 11:49:28;;;;;;;7.00;4.87;;;5.30;52.40;;;;;;4975125;28;20506;-64
2021/03/18 11:51:54;;;;;;;9.30;5.20;;;5.40;52.30;;;;;;4980284;28;20453;-62
2021/03/18 11:54:20;;;;;;;9.23;5.23;;;5.50;51.70;;;;;;4981246;28;20840;-60
2021/03/18 11:56:46;;;;;;;10.13;5.37;;;5.60;51.50;;;;;;4979505;28;20437;-60
2021/03/18 11:59:12;;;;;;;6.80;4.53;;;5.70;51.60;;;;;;4956469;28;20729;-61
2021/03/18 12:01:38;;;;;;;7.63;4.83;;;5.70;51.40;;;;;;4977345;28;21166;-60
2021/03/18 12:04:04;;;;;;;9.50;5.03;;;5.70;51.50;;;;;;4990108;28;20435;-60
2021/03/18 12:06:30;;;;;;;7.43;5.10;;;5.70;51.10;;;;;;4965894;28;20435;-61
2021/03/18 12:08:55;;;;;;;8.07;5.30;;;5.70;50.70;;;;;;4982023;28;20468;-60
2021/03/18 12:11:21;;;;;;;8.53;5.63;;;5.70;52.60;;;;;;4980300;28;20289;-59
2021/03/18 12:13:47;;;;;;;8.20;4.80;;;5.70;53.80;;;;;;4982574;28;20762;-61
2021/03/18 12:16:13;;;;;;;8.60;5.03;;;5.80;52.50;;;;;;4961578;28;20227;-60
2021/03/18 12:18:38;;;;;;;11.27;5.80;;;5.80;51.50;;;;;;4979834;28;20178;-62
2021/03/18 12:21:04;;;;;;;8.30;4.77;;;5.80;50.40;;;;;;4977968;28;20196;-62
2021/03/18 12:23:30;;;;;;;6.73;4.90;;;5.80;50.40;;;;;;4976318;28;20196;-61
2021/03/18 12:25:56;;;;;;;7.47;4.90;;;5.80;50.80;;;;;;4983177;28;20522;-62
2021/03/18 12:28:25;;;;;;;8.37;5.93;;;5.90;50.70;;;;;;4975832;28;20212;-62
2021/03/18 12:30:53;;;;;;;10.50;6.07;;;5.90;51.10;;;;;;4978135;28;20440;-61
2021/03/18 12:33:19;;;;;;;8.90;5.67;;;5.90;50.60;;;;;;4980512;28;20960;-61
2021/03/18 12:35:47;;;;;;;8.00;5.33;;;6.00;50.80;;;;;;4981794;28;20443;-62
2021/03/18 12:38:13;;;;;;;8.80;4.90;;;6.00;50.50;;;;;;4963179;28;20484;-61
2021/03/18 12:40:39;;;;;;;10.27;5.00;;;6.00;49.60;;;;;;4964765;28;20945;-61
2021/03/18 12:43:05;;;;;;;6.30;4.40;;;6.00;50.00;;;;;;4974007;28;20477;-61
2021/03/18 12:45:33;;;;;;;8.70;4.30;;;6.10;49.40;;;;;;4960940;28;20199;-61
2021/03/18 12:48:00;;;;;;;8.30;4.90;;;6.20;49.30;;;;;;4984205;28;20173;-61
2021/03/18 12:50:26;;;;;;;6.00;4.10;;;6.30;49.10;;;;;;4985226;28;20440;-62
2021/03/18 12:52:52;;;;;;;6.20;4.33;;;6.60;48.30;;;;;;4979746;28;20971;-60
2021/03/18 12:55:18;;;;;;;6.57;4.33;;;6.90;46.50;;;;;;4985309;28;20427;-62
2021/03/18 12:57:45;;;;;;;8.70;4.50;;;7.20;45.70;;;;;;4984094;28;20367;-61
2021/03/18 13:00:13;;;;;;;6.70;4.03;;;7.40;44.10;;;;;;4984731;28;20440;-61
2021/03/18 13:02:39;;;;;;;7.53;4.57;;;7.40;44.50;;;;;;4983020;28;20463;-61